sensor_id;sensor_type;location;lat;lon;timestamp;P1;durP1;ratioP1;P2;durP2;ratioP2
74777;SDS011;63298;53.164;8.610;2024-01-07T20:06:43;2.22;;;1.40;;
74777;SDS011;63298;53.164;8.610;2024-01-07T20:09:15;2.47;;;2.22;;
74777;SDS011;63298;53.164;8.610;2024-01-07T20:12:02;1.38;;;1.27;;
74777;SDS011;63298;53.164;8.610;2024-01-07T20:15:01;2.75;;;2.03;;
74777;SDS011;63298;53.164;8.610;2024-01-07T20:17:59;2.35;;;1.63;;
74777;SDS011;63298;53.164;8.610;2024-01-07T20:20:24;3.58;;;1.92;;
74777;SDS011;63298;53.164;8.610;2024-01-07T20:23:09;2.45;;;1.70;;
74777;SDS011;63298;53.164;8.610;2024-01-07T20:25:38;3.78;;;2.38;;
74777;SDS011;63298;53.164;8.610;2024-01-07T20:28:12;2.70;;;2.13;;
74777;SDS011;63298;53.164;8.610;2024-01-07T20:31:01;4.55;;;2.65;;
74777;SDS011;63298;53.164;8.610;2024-01-07T20:33:38;4.45;;;2.20;;
74777;SDS011;63298;53.164;8.610;2024-01-07T20:36:21;2.55;;;2.13;;
74777;SDS011;63298;53.164;8.610;2024-01-07T20:39:09;4.57;;;2.47;;
74777;SDS011;63298;53.164;8.610;2024-01-07T20:41:57;3.03;;;2.05;;
74777;SDS011;63298;53.164;8.610;2024-01-07T20:47:48;2.03;;;1.83;;
74777;SDS011;63298;53.164;8.610;2024-01-07T20:50:13;5.30;;;2.40;;
74777;SDS011;63298;53.164;8.610;2024-01-07T20:52:39;3.20;;;1.80;;
74777;SDS011;63298;53.164;8.610;2024-01-07T20:55:04;6.47;;;2.47;;
74777;SDS011;63298;53.164;8.610;2024-01-07T20:57:30;2.72;;;2.08;;
74777;SDS011;63298;53.164;8.610;2024-01-07T20:59:58;2.47;;;2.03;;
74777;SDS011;63298;53.164;8.610;2024-01-07T21:02:26;5.20;;;2.72;;
74777;SDS011;63298;53.164;8.610;2024-01-07T21:04:51;3.58;;;2.40;;
74777;SDS011;63298;53.164;8.610;2024-01-07T21:07:17;3.20;;;1.90;;
74777;SDS011;63298;53.164;8.610;2024-01-07T21:09:42;3.38;;;2.00;;
74777;SDS011;63298;53.164;8.610;2024-01-07T21:15:11;6.47;;;2.50;;
74777;SDS011;63298;53.164;8.610;2024-01-07T21:17:37;3.47;;;2.55;;
74777;SDS011;63298;53.164;8.610;2024-01-07T21:20:05;5.30;;;2.67;;
74777;SDS011;63298;53.164;8.610;2024-01-07T21:22:31;3.67;;;2.60;;
74777;SDS011;63298;53.164;8.610;2024-01-07T21:24:59;5.38;;;3.17;;
74777;SDS011;63298;53.164;8.610;2024-01-07T21:27:24;4.22;;;2.83;;
74777;SDS011;63298;53.164;8.610;2024-01-07T21:29:57;2.90;;;2.10;;
74777;SDS011;63298;53.164;8.610;2024-01-07T21:32:36;5.38;;;2.65;;
74777;SDS011;63298;53.164;8.610;2024-01-07T21:35:04;4.65;;;2.70;;
74777;SDS011;63298;53.164;8.610;2024-01-07T21:37:56;2.42;;;1.85;;
74777;SDS011;63298;53.164;8.610;2024-01-07T21:40:34;3.00;;;1.73;;
74777;SDS011;63298;53.164;8.610;2024-01-07T21:43:13;4.68;;;2.70;;
74777;SDS011;63298;53.164;8.610;2024-01-07T21:45:46;4.20;;;2.25;;
74777;SDS011;63298;53.164;8.610;2024-01-07T21:48:24;3.88;;;2.10;;
74777;SDS011;63298;53.164;8.610;2024-01-07T21:50:55;3.55;;;2.42;;
74777;SDS011;63298;53.164;8.610;2024-01-07T21:53:27;3.33;;;2.03;;
74777;SDS011;63298;53.164;8.610;2024-01-07T21:55:55;3.78;;;2.17;;
74777;SDS011;63298;53.164;8.610;2024-01-07T21:58:34;3.83;;;2.15;;
74777;SDS011;63298;53.164;8.610;2024-01-07T22:01:00;3.10;;;2.10;;
74777;SDS011;63298;53.164;8.610;2024-01-07T22:03:29;3.92;;;2.63;;
74777;SDS011;63298;53.164;8.610;2024-01-07T22:05:57;4.55;;;2.40;;
74777;SDS011;63298;53.164;8.610;2024-01-07T22:08:38;4.95;;;2.78;;
74777;SDS011;63298;53.164;8.610;2024-01-07T22:11:13;3.47;;;2.45;;
74777;SDS011;63298;53.164;8.610;2024-01-07T22:13:40;5.55;;;2.95;;
74777;SDS011;63298;53.164;8.610;2024-01-07T22:16:19;4.63;;;2.20;;
74777;SDS011;63298;53.164;8.610;2024-01-07T22:21:42;5.03;;;2.90;;
74777;SDS011;63298;53.164;8.610;2024-01-07T22:24:11;5.88;;;3.40;;
74777;SDS011;63298;53.164;8.610;2024-01-07T22:26:37;3.17;;;1.75;;
74777;SDS011;63298;53.164;8.610;2024-01-07T22:29:02;7.05;;;3.15;;
74777;SDS011;63298;53.164;8.610;2024-01-07T22:31:30;7.07;;;3.17;;
74777;SDS011;63298;53.164;8.610;2024-01-07T22:33:58;5.18;;;2.83;;
74777;SDS011;63298;53.164;8.610;2024-01-07T22:36:24;6.35;;;2.88;;
74777;SDS011;63298;53.164;8.610;2024-01-07T22:38:53;3.83;;;2.28;;
74777;SDS011;63298;53.164;8.610;2024-01-07T22:41:23;6.45;;;2.53;;
74777;SDS011;63298;53.164;8.610;2024-01-07T22:43:52;4.78;;;3.03;;
74777;SDS011;63298;53.164;8.610;2024-01-07T22:46:20;3.90;;;2.83;;
74777;SDS011;63298;53.164;8.610;2024-01-07T22:48:49;7.63;;;3.88;;
74777;SDS011;63298;53.164;8.610;2024-01-07T22:51:17;5.63;;;3.63;;
74777;SDS011;63298;53.164;8.610;2024-01-07T22:53:45;5.63;;;2.85;;
74777;SDS011;63298;53.164;8.610;2024-01-07T22:56:11;5.30;;;3.20;;
74777;SDS011;63298;53.164;8.610;2024-01-07T22:58:36;6.85;;;3.40;;
74777;SDS011;63298;53.164;8.610;2024-01-07T23:01:02;3.92;;;2.78;;
74777;SDS011;63298;53.164;8.610;2024-01-07T23:03:29;4.30;;;2.70;;
74777;SDS011;63298;53.164;8.610;2024-01-07T23:06:06;5.93;;;3.00;;
74777;SDS011;63298;53.164;8.610;2024-01-07T23:08:35;5.88;;;3.00;;
74777;SDS011;63298;53.164;8.610;2024-01-07T23:11:00;6.18;;;3.83;;
74777;SDS011;63298;53.164;8.610;2024-01-07T23:13:26;5.05;;;3.67;;
74777;SDS011;63298;53.164;8.610;2024-01-07T23:16:01;5.82;;;3.40;;
74777;SDS011;63298;53.164;8.610;2024-01-07T23:18:29;5.57;;;2.85;;
74777;SDS011;63298;53.164;8.610;2024-01-07T23:21:05;5.80;;;3.05;;
74777;SDS011;63298;53.164;8.610;2024-01-07T23:23:35;5.40;;;3.05;;
74777;SDS011;63298;53.164;8.610;2024-01-07T23:26:04;4.35;;;3.15;;
74777;SDS011;63298;53.164;8.610;2024-01-07T23:28:35;5.90;;;3.20;;
74777;SDS011;63298;53.164;8.610;2024-01-07T23:31:01;3.72;;;2.65;;
74777;SDS011;63298;53.164;8.610;2024-01-07T23:33:43;5.80;;;3.00;;
74777;SDS011;63298;53.164;8.610;2024-01-07T23:36:09;4.85;;;2.90;;
74777;SDS011;63298;53.164;8.610;2024-01-07T23:38:34;10.38;;;3.28;;
74777;SDS011;63298;53.164;8.610;2024-01-07T23:41:03;7.28;;;4.10;;
74777;SDS011;63298;53.164;8.610;2024-01-07T23:43:30;6.88;;;3.13;;
74777;SDS011;63298;53.164;8.610;2024-01-07T23:45:58;4.40;;;2.92;;
74777;SDS011;63298;53.164;8.610;2024-01-07T23:48:36;9.18;;;4.30;;
74777;SDS011;63298;53.164;8.610;2024-01-07T23:51:22;9.57;;;4.20;;
74777;SDS011;63298;53.164;8.610;2024-01-07T23:54:00;8.25;;;3.85;;
74777;SDS011;63298;53.164;8.610;2024-01-07T23:56:26;9.30;;;3.55;;
74777;SDS011;63298;53.164;8.610;2024-01-07T23:58:59;7.63;;;3.67;;
